createdAt,value
2018-11-06T00:02:14.238Z,189.67
2018-11-06T00:04:56.122Z,109.30
2018-11-06T00:07:25.171Z,123.93
2018-11-06T00:09:52.455Z,186.20
2018-11-06T00:12:19.531Z,163.33
2018-11-06T00:14:46.911Z,189.73
2018-11-06T00:17:14.238Z,191.87
2018-11-06T00:19:41.724Z,178.50
2018-11-06T00:22:09.029Z,138.20
2018-11-06T00:24:36.260Z,157.83
2018-11-06T00:27:03.376Z,246.70
2018-11-06T00:29:30.499Z,179.83
2018-11-06T00:31:57.679Z,172.93
2018-11-06T00:34:24.847Z,188.83
2018-11-06T00:36:51.925Z,200.67
2018-11-06T00:39:19.582Z,261.33
2018-11-06T00:41:48.861Z,231.50
2018-11-06T00:44:16.843Z,198.60
2018-11-06T00:46:43.988Z,114.10
2018-11-06T00:49:11.087Z,106.23
2018-11-06T00:51:38.848Z,123.70
2018-11-06T00:54:06.726Z,109.17
2018-11-06T00:56:33.802Z,95.53
2018-11-06T00:59:00.905Z,113.37
2018-11-06T01:01:28.103Z,110.47
2018-11-06T01:04:01.656Z,100.50
2018-11-06T01:06:29.164Z,114.17
2018-11-06T01:08:56.307Z,112.10
2018-11-06T01:11:23.439Z,105.07
2018-11-06T01:13:50.619Z,91.83
2018-11-06T01:16:17.701Z,165.03
2018-11-06T01:18:45.005Z,237.50
2018-11-06T01:21:12.069Z,142.07
2018-11-06T01:23:39.148Z,137.33
2018-11-06T01:26:07.479Z,138.37
2018-11-06T01:28:34.554Z,133.03
2018-11-06T01:31:01.700Z,118.50
2018-11-06T01:33:28.815Z,122.30
2018-11-06T01:35:55.884Z,122.10
2018-11-06T01:38:22.960Z,111.17
2018-11-06T01:40:50.125Z,110.87
2018-11-06T01:43:18.152Z,110.30
2018-11-06T01:45:45.321Z,113.30
2018-11-06T01:48:12.400Z,106.90
2018-11-06T01:50:39.483Z,98.70
2018-11-06T01:53:06.723Z,103.63
2018-11-06T01:55:33.880Z,106.50
2018-11-06T01:58:00.942Z,108.80
2018-11-06T02:00:28.475Z,99.67
2018-11-06T02:05:36.300Z,103.67
2018-11-06T02:08:03.481Z,98.90
2018-11-06T02:10:30.702Z,97.40
2018-11-06T02:12:57.871Z,94.90
2018-11-06T02:15:26.736Z,106.53
2018-11-06T02:17:53.957Z,104.80
2018-11-06T02:20:21.124Z,101.53
2018-11-06T02:22:48.292Z,107.87
2018-11-06T02:25:15.822Z,108.43
2018-11-06T02:27:43.064Z,122.63
2018-11-06T02:30:13.822Z,113.17
2018-11-06T02:32:42.752Z,111.33
2018-11-06T02:35:09.914Z,118.33
2018-11-06T02:37:37.830Z,120.37
2018-11-06T02:40:06.385Z,128.50
2018-11-06T02:42:33.482Z,135.13
2018-11-06T02:45:00.567Z,136.97
2018-11-06T02:47:27.744Z,131.03
2018-11-06T02:49:54.932Z,135.50
2018-11-06T02:52:22.003Z,142.67
2018-11-06T02:54:49.257Z,141.00
2018-11-06T02:57:16.408Z,151.20
2018-11-06T02:59:43.632Z,172.70
2018-11-06T03:02:10.756Z,127.73
2018-11-06T03:04:37.944Z,134.10
2018-11-06T03:07:05.068Z,124.77
2018-11-06T03:09:32.273Z,133.00
2018-11-06T03:11:59.504Z,138.53
2018-11-06T03:14:26.593Z,164.23
2018-11-06T03:16:53.744Z,152.83
2018-11-06T03:19:20.764Z,151.97
2018-11-06T03:21:48.471Z,169.87
2018-11-06T03:24:15.611Z,132.50
2018-11-06T03:26:42.902Z,192.70
2018-11-06T03:29:10.040Z,159.03
2018-11-06T03:31:37.109Z,139.33
2018-11-06T03:34:06.112Z,151.40
2018-11-06T03:36:33.224Z,146.37
2018-11-06T03:39:01.217Z,218.60
2018-11-06T03:41:28.315Z,155.03
2018-11-06T03:43:55.439Z,94.17
2018-11-06T03:46:22.620Z,120.90
2018-11-06T03:48:49.699Z,85.87
2018-11-06T03:51:16.838Z,118.40
2018-11-06T03:53:44.393Z,168.30
2018-11-06T03:56:11.551Z,178.20
2018-11-06T03:58:38.624Z,194.57
2018-11-06T04:01:07.098Z,138.33
2018-11-06T04:03:34.192Z,170.23
2018-11-06T04:06:01.411Z,159.63
2018-11-06T04:08:28.487Z,176.33
2018-11-06T04:10:55.643Z,195.03
2018-11-06T04:13:22.829Z,166.67
2018-11-06T04:15:49.912Z,156.93
2018-11-06T04:18:17.076Z,161.60
2018-11-06T04:20:44.151Z,130.70
2018-11-06T04:23:11.375Z,119.90
2018-11-06T04:25:38.547Z,131.20
2018-11-06T04:28:05.668Z,179.33
2018-11-06T04:30:32.761Z,177.53
2018-11-06T04:32:59.929Z,117.57
2018-11-06T04:35:27.095Z,129.10
2018-11-06T04:37:54.163Z,130.63
2018-11-06T04:40:21.255Z,173.47
2018-11-06T04:42:48.411Z,136.80
2018-11-06T04:45:15.595Z,144.57
2018-11-06T04:47:43.350Z,154.87
2018-11-06T04:50:10.806Z,158.00
2018-11-06T04:52:38.058Z,176.83
2018-11-06T04:55:09.271Z,182.73
2018-11-06T04:57:36.363Z,252.67
2018-11-06T05:00:05.071Z,125.07
2018-11-06T05:02:32.247Z,153.27
2018-11-06T05:04:59.393Z,136.87
2018-11-06T05:07:26.472Z,141.53
2018-11-06T05:09:53.661Z,170.63
2018-11-06T05:12:20.837Z,156.00
2018-11-06T05:14:47.915Z,150.43
2018-11-06T05:17:15.044Z,107.93
2018-11-06T05:19:42.198Z,107.43
2018-11-06T05:22:09.449Z,106.10
2018-11-06T05:24:36.700Z,102.43
2018-11-06T05:27:05.510Z,177.70
2018-11-06T05:29:33.965Z,102.73
2018-11-06T05:32:01.170Z,119.87
2018-11-06T05:34:28.236Z,90.43
2018-11-06T05:36:55.309Z,122.40
2018-11-06T05:39:22.413Z,105.43
2018-11-06T05:41:49.544Z,114.93
2018-11-06T05:44:16.616Z,127.97
2018-11-06T05:46:43.822Z,119.17
2018-11-06T05:49:10.912Z,112.30
2018-11-06T05:51:38.066Z,142.57
2018-11-06T05:54:05.149Z,296.27
2018-11-06T05:56:32.302Z,136.43
2018-11-06T05:58:59.371Z,142.10
2018-11-06T06:01:26.555Z,122.43
2018-11-06T06:03:53.731Z,224.10
2018-11-06T06:06:22.609Z,130.00
2018-11-06T06:08:49.810Z,132.17
2018-11-06T06:11:17.005Z,188.60
2018-11-06T06:13:44.060Z,274.40
2018-11-06T06:16:11.255Z,158.67
2018-11-06T06:18:38.425Z,170.23
2018-11-06T06:21:05.984Z,222.27
2018-11-06T06:23:33.128Z,270.40
2018-11-06T06:26:00.284Z,191.90
2018-11-06T06:28:27.505Z,223.13
2018-11-06T06:30:54.847Z,167.57
2018-11-06T06:33:22.024Z,187.27
2018-11-06T06:35:49.099Z,174.03
2018-11-06T06:38:16.175Z,289.93
2018-11-06T06:40:43.381Z,167.60
2018-11-06T06:43:10.437Z,231.97
2018-11-06T06:45:37.575Z,217.37
2018-11-06T06:48:04.801Z,178.03
2018-11-06T06:50:32.008Z,231.63
2018-11-06T06:52:59.637Z,139.83
2018-11-06T06:55:26.808Z,157.30
2018-11-06T06:57:53.847Z,243.10
2018-11-06T07:00:22.183Z,186.40
2018-11-06T07:02:49.375Z,127.13
2018-11-06T07:05:19.154Z,118.73
2018-11-06T07:07:46.356Z,124.63
2018-11-06T07:10:17.439Z,189.90
2018-11-06T07:12:46.651Z,168.60
2018-11-06T07:15:16.351Z,124.00
2018-11-06T07:17:44.819Z,105.73
2018-11-06T07:20:14.469Z,82.20
2018-11-06T07:22:41.547Z,165.40
2018-11-06T07:25:10.263Z,91.60
2018-11-06T07:27:38.450Z,115.47
2018-11-06T07:30:11.963Z,99.53
2018-11-06T07:32:40.827Z,101.70
2018-11-06T07:35:08.916Z,88.47
2018-11-06T07:37:37.288Z,99.57
2018-11-06T07:40:06.680Z,104.67
2018-11-06T07:42:33.794Z,84.23
2018-11-06T07:45:00.905Z,104.10
2018-11-06T07:47:29.662Z,176.33
2018-11-06T07:49:56.928Z,73.70
2018-11-06T07:52:24.000Z,99.17
2018-11-06T07:54:52.040Z,136.23
2018-11-06T07:57:19.167Z,124.20
2018-11-06T07:59:46.304Z,110.67
2018-11-06T08:02:13.373Z,157.40
2018-11-06T08:04:40.469Z,114.47
2018-11-06T08:07:08.608Z,90.13
2018-11-06T08:09:35.980Z,119.23
2018-11-06T08:12:03.209Z,164.50
2018-11-06T08:14:31.312Z,120.83
2018-11-06T08:16:58.653Z,137.73
2018-11-06T08:19:25.799Z,145.13
2018-11-06T08:21:52.955Z,79.80
2018-11-06T08:24:20.007Z,82.83
2018-11-06T08:26:50.837Z,102.50
2018-11-06T08:29:18.488Z,86.00
2018-11-06T08:31:46.419Z,91.53
2018-11-06T08:34:12.779Z,74.83
2018-11-06T08:36:39.915Z,57.50
2018-11-06T08:39:08.287Z,64.10
2018-11-06T08:41:35.455Z,76.03
2018-11-06T08:44:02.688Z,102.43
2018-11-06T08:46:29.802Z,75.83
2018-11-06T08:48:56.956Z,76.77
2018-11-06T08:51:24.118Z,72.90
2018-11-06T08:53:51.193Z,79.47
2018-11-06T08:56:18.272Z,76.30
2018-11-06T08:58:45.475Z,105.30
2018-11-06T09:01:12.564Z,138.13
2018-11-06T09:03:39.644Z,132.03
2018-11-06T09:06:07.677Z,70.00
2018-11-06T09:08:34.841Z,78.63
2018-11-06T09:11:02.562Z,94.57
2018-11-06T09:13:30.479Z,80.73
2018-11-06T09:15:57.926Z,69.27
2018-11-06T09:18:25.391Z,67.77
2018-11-06T09:20:53.394Z,69.37
2018-11-06T09:23:20.576Z,67.87
2018-11-06T09:25:47.756Z,64.93
2018-11-06T09:28:15.135Z,74.03
2018-11-06T09:30:42.540Z,76.23
2018-11-06T09:33:09.739Z,86.17
2018-11-06T09:35:36.911Z,76.87
2018-11-06T09:38:05.883Z,78.47
2018-11-06T09:40:35.521Z,82.17
2018-11-06T09:43:03.609Z,79.30
2018-11-06T09:45:42.748Z,87.20
2018-11-06T09:48:15.921Z,100.70
2018-11-06T09:50:43.683Z,105.07
2018-11-06T09:53:10.873Z,91.13
2018-11-06T09:55:37.975Z,148.47
2018-11-06T09:58:10.083Z,150.07
2018-11-06T10:00:37.183Z,116.00
2018-11-06T10:03:08.709Z,105.10
2018-11-06T10:05:41.043Z,90.40
2018-11-06T10:08:11.359Z,87.03
2018-11-06T10:10:42.543Z,76.83
2018-11-06T10:13:09.964Z,75.67
2018-11-06T10:15:37.297Z,71.83
2018-11-06T10:18:05.403Z,78.70
2018-11-06T10:20:32.551Z,78.47
2018-11-06T10:23:00.124Z,105.77
2018-11-06T10:25:27.822Z,83.37
2018-11-06T10:27:54.900Z,92.93
2018-11-06T10:30:22.067Z,142.10
2018-11-06T10:32:49.791Z,92.17
2018-11-06T10:35:17.088Z,102.60
2018-11-06T10:37:44.262Z,83.07
2018-11-06T10:40:19.174Z,97.73
2018-11-06T10:42:47.344Z,151.00
2018-11-06T10:45:14.489Z,173.50
2018-11-06T10:47:41.568Z,144.17
2018-11-06T10:50:09.981Z,100.13
2018-11-06T10:52:37.294Z,107.10
2018-11-06T10:55:05.517Z,118.50
2018-11-06T10:57:32.799Z,128.67
2018-11-06T11:00:00.152Z,109.33
2018-11-06T11:02:32.945Z,135.10
2018-11-06T11:05:00.062Z,99.83
2018-11-06T11:07:27.354Z,121.60
2018-11-06T11:09:54.563Z,89.03
2018-11-06T11:12:21.719Z,74.33
2018-11-06T11:14:48.791Z,74.07
2018-11-06T11:17:15.867Z,77.23
2018-11-06T11:19:42.972Z,68.67
2018-11-06T11:22:10.211Z,80.07
2018-11-06T11:24:37.320Z,77.47
2018-11-06T11:27:05.000Z,74.63
2018-11-06T11:29:32.446Z,69.80
2018-11-06T11:31:59.545Z,66.47
2018-11-06T11:34:26.628Z,74.00
2018-11-06T11:36:53.780Z,72.80
2018-11-06T11:39:20.861Z,74.03
2018-11-06T11:41:48.020Z,68.00
2018-11-06T11:44:15.099Z,69.80
2018-11-06T11:46:42.262Z,67.03
2018-11-06T11:49:09.339Z,66.10
2018-11-06T11:51:36.494Z,69.47
2018-11-06T11:54:04.204Z,172.23
2018-11-06T11:56:31.551Z,116.53
2018-11-06T11:58:58.631Z,189.03
2018-11-06T12:01:25.819Z,145.63
2018-11-06T12:03:53.051Z,119.57
2018-11-06T12:06:20.136Z,112.50
2018-11-06T12:08:47.295Z,60.37
2018-11-06T12:11:14.455Z,84.90
2018-11-06T12:13:41.523Z,67.93
2018-11-06T12:16:08.631Z,62.77
2018-11-06T12:18:36.000Z,62.20
2018-11-06T12:21:03.115Z,49.90
2018-11-06T12:23:30.216Z,49.77
2018-11-06T12:25:57.754Z,52.47
2018-11-06T12:28:25.035Z,50.03
2018-11-06T12:30:52.112Z,51.40
2018-11-06T12:33:19.728Z,51.33
2018-11-06T12:35:46.891Z,57.17
2018-11-06T12:38:21.782Z,50.97
2018-11-06T12:40:49.084Z,85.27
2018-11-06T12:43:16.166Z,73.37
2018-11-06T12:45:43.545Z,56.30
2018-11-06T12:48:10.711Z,99.67
2018-11-06T12:50:38.547Z,126.73
2018-11-06T12:53:05.725Z,82.27
2018-11-06T12:55:33.215Z,60.93
2018-11-06T12:58:00.507Z,103.37
2018-11-06T13:00:27.577Z,119.93
2018-11-06T13:02:54.644Z,200.60
2018-11-06T13:05:21.743Z,114.67
2018-11-06T13:07:48.846Z,62.70
2018-11-06T13:10:16.092Z,59.17
2018-11-06T13:12:43.924Z,84.93
2018-11-06T13:15:15.639Z,62.90
2018-11-06T13:17:42.349Z,56.70
2018-11-06T13:20:12.723Z,47.83
2018-11-06T13:22:41.632Z,62.53
2018-11-06T13:25:08.728Z,65.77
2018-11-06T13:27:37.280Z,57.23
2018-11-06T13:30:07.941Z,61.30
2018-11-06T13:32:35.396Z,49.00
2018-11-06T13:35:02.597Z,56.80
2018-11-06T13:37:30.394Z,52.97
2018-11-06T13:40:07.117Z,50.43
2018-11-06T13:42:37.723Z,68.27
2018-11-06T13:45:07.259Z,51.10
2018-11-06T13:47:34.705Z,66.33
2018-11-06T13:50:02.149Z,50.30
2018-11-06T13:52:29.317Z,53.43
2018-11-06T13:54:56.835Z,44.27
2018-11-06T13:57:25.235Z,53.30
2018-11-06T13:59:52.520Z,48.30
2018-11-06T14:02:29.020Z,102.50
2018-11-06T14:04:57.521Z,79.00
2018-11-06T14:07:24.581Z,48.50
2018-11-06T14:09:52.435Z,54.10
2018-11-06T14:12:19.520Z,50.60
2018-11-06T14:14:47.582Z,41.37
2018-11-06T14:17:15.124Z,46.20
2018-11-06T14:19:44.347Z,46.30
2018-11-06T14:22:11.521Z,43.40
2018-11-06T14:24:38.772Z,59.87
2018-11-06T14:27:05.973Z,64.93
2018-11-06T14:29:33.049Z,47.97
2018-11-06T14:32:00.164Z,44.13
2018-11-06T14:34:27.359Z,47.07
2018-11-06T14:36:54.520Z,49.03
2018-11-06T14:39:21.583Z,44.17
2018-11-06T14:41:48.747Z,41.93
2018-11-06T14:44:16.660Z,42.13
2018-11-06T14:46:43.783Z,37.83
2018-11-06T14:49:10.998Z,41.40
2018-11-06T14:51:38.070Z,41.83
2018-11-06T14:54:05.180Z,41.37
2018-11-06T14:56:32.754Z,43.40
2018-11-06T14:59:00.239Z,39.87
2018-11-06T15:01:27.500Z,46.47
2018-11-06T15:03:54.947Z,40.60
2018-11-06T15:06:22.031Z,45.60
2018-11-06T15:08:49.114Z,46.90
2018-11-06T15:11:16.189Z,50.57
2018-11-06T15:13:43.507Z,94.33
2018-11-06T15:16:10.592Z,75.97
2018-11-06T15:18:37.751Z,98.87
2018-11-06T15:21:05.070Z,95.53
2018-11-06T15:23:39.204Z,72.83
2018-11-06T15:26:06.854Z,66.57
2018-11-06T15:28:34.010Z,63.17
2018-11-06T15:31:01.148Z,55.93
2018-11-06T15:33:28.464Z,61.60
2018-11-06T15:35:55.541Z,74.40
2018-11-06T15:38:22.635Z,90.53
2018-11-06T15:40:51.020Z,72.50
2018-11-06T15:43:18.158Z,63.53
2018-11-06T15:45:45.388Z,57.30
2018-11-06T15:48:12.579Z,58.20
2018-11-06T15:50:39.727Z,72.10
2018-11-06T15:53:07.628Z,54.50
2018-11-06T15:55:35.271Z,54.27
2018-11-06T15:58:02.885Z,49.03
2018-11-06T16:00:30.327Z,62.30
2018-11-06T16:02:57.993Z,60.50
2018-11-06T16:05:25.853Z,71.33
2018-11-06T16:07:53.898Z,57.57
2018-11-06T16:10:24.372Z,62.60
2018-11-06T16:12:52.089Z,53.67
2018-11-06T16:15:19.192Z,50.30
2018-11-06T16:17:47.908Z,59.10
2018-11-06T16:20:16.476Z,48.40
2018-11-06T16:22:45.037Z,54.17
2018-11-06T16:25:14.952Z,99.43
2018-11-06T16:27:43.767Z,57.60
2018-11-06T16:30:14.655Z,84.53
2018-11-06T16:32:42.297Z,86.87
2018-11-06T16:35:11.280Z,52.80
2018-11-06T16:37:39.063Z,96.17
2018-11-06T16:40:06.735Z,50.83
2018-11-06T16:42:34.624Z,57.57
2018-11-06T16:45:02.164Z,49.83
2018-11-06T16:47:29.449Z,56.67
2018-11-06T16:49:57.499Z,54.77
2018-11-06T16:52:24.680Z,56.67
2018-11-06T16:54:51.890Z,56.90
2018-11-06T16:57:18.973Z,52.47
2018-11-06T16:59:46.104Z,61.10
2018-11-06T17:02:13.366Z,57.80
2018-11-06T17:04:40.512Z,110.10
2018-11-06T17:07:07.750Z,107.13
2018-11-06T17:09:35.099Z,107.53
2018-11-06T17:12:02.696Z,78.30
2018-11-06T17:14:29.777Z,72.83
2018-11-06T17:16:56.870Z,72.87
2018-11-06T17:19:24.047Z,54.03
2018-11-06T17:21:51.215Z,63.83
2018-11-06T17:24:18.267Z,85.20
2018-11-06T17:26:45.496Z,64.63
2018-11-06T17:29:12.647Z,58.17
2018-11-06T17:31:39.691Z,67.27
2018-11-06T17:34:06.784Z,66.87
2018-11-06T17:36:33.883Z,59.53
2018-11-06T17:39:00.949Z,61.20
2018-11-06T17:41:28.242Z,68.77
2018-11-06T17:43:55.424Z,69.90
2018-11-06T17:46:22.520Z,76.43
2018-11-06T17:48:50.096Z,60.97
2018-11-06T17:51:17.149Z,135.70
2018-11-06T17:53:44.502Z,154.37
2018-11-06T17:56:11.668Z,100.00
2018-11-06T17:58:38.823Z,97.53
2018-11-06T18:01:05.916Z,104.43
2018-11-06T18:03:33.127Z,68.77
2018-11-06T18:06:00.230Z,71.53
2018-11-06T18:08:27.815Z,61.43
2018-11-06T18:10:54.949Z,79.50
2018-11-06T18:13:23.354Z,104.73
2018-11-06T18:15:50.664Z,81.80
2018-11-06T18:18:17.811Z,72.50
2018-11-06T18:20:45.129Z,109.63
2018-11-06T18:23:12.212Z,108.50
2018-11-06T18:25:39.363Z,87.00
2018-11-06T18:28:07.065Z,97.53
2018-11-06T18:30:35.125Z,80.47
2018-11-06T18:33:02.493Z,81.27
2018-11-06T18:35:29.766Z,93.03
2018-11-06T18:37:56.878Z,80.23
2018-11-06T18:40:24.071Z,85.43
2018-11-06T18:42:51.282Z,70.40
2018-11-06T18:45:18.575Z,68.87
2018-11-06T18:47:45.826Z,72.43
2018-11-06T18:50:14.439Z,88.27
2018-11-06T18:52:43.780Z,77.90
2018-11-06T18:55:11.033Z,71.30
2018-11-06T18:57:38.620Z,72.87
2018-11-06T19:00:11.266Z,68.13
2018-11-06T19:02:38.431Z,76.60
2018-11-06T19:05:05.916Z,68.87
2018-11-06T19:07:33.041Z,82.93
2018-11-06T19:10:00.472Z,91.23
2018-11-06T19:12:28.047Z,66.30
2018-11-06T19:14:55.454Z,84.13
2018-11-06T19:17:22.619Z,70.70
2018-11-06T19:19:49.687Z,136.60
2018-11-06T19:22:16.881Z,155.90
2018-11-06T19:24:44.064Z,218.77
2018-11-06T19:27:11.938Z,111.10
2018-11-06T19:29:39.375Z,95.53
2018-11-06T19:32:06.466Z,94.17
2018-11-06T19:34:33.527Z,161.27
2018-11-06T19:37:00.724Z,299.93
2018-11-06T19:39:27.897Z,116.27
2018-11-06T19:41:56.004Z,148.00
2018-11-06T19:44:23.058Z,226.23
2018-11-06T19:46:50.158Z,204.33
2018-11-06T19:49:18.438Z,153.00
2018-11-06T19:51:45.610Z,181.50
2018-11-06T19:54:13.436Z,112.37
2018-11-06T19:56:40.991Z,147.13
2018-11-06T19:59:08.216Z,114.20
2018-11-06T20:01:35.913Z,95.63
2018-11-06T20:04:03.395Z,123.47
2018-11-06T20:06:57.416Z,123.33
2018-11-06T20:09:54.119Z,79.13
2018-11-06T20:12:23.706Z,82.00
2018-11-06T20:14:51.312Z,106.97
2018-11-06T20:17:39.872Z,84.63
2018-11-06T20:20:49.240Z,98.43
2018-11-06T20:23:54.536Z,84.72
2018-11-06T20:27:06.074Z,66.37
2018-11-06T20:30:01.046Z,75.83
2018-11-06T20:35:38.950Z,93.70
2018-11-06T20:38:06.059Z,96.07
2018-11-06T20:40:33.068Z,88.40
2018-11-06T20:43:00.329Z,105.30
2018-11-06T20:45:27.265Z,84.57
2018-11-06T20:47:54.443Z,74.20
2018-11-06T20:50:24.707Z,72.73
2018-11-06T20:52:52.320Z,78.40
2018-11-06T20:55:19.701Z,72.87
2018-11-06T20:57:46.998Z,123.63
2018-11-06T21:00:22.251Z,97.27
2018-11-06T21:02:50.380Z,81.33
2018-11-06T21:05:17.585Z,74.63
2018-11-06T21:07:46.911Z,71.40
2018-11-06T21:10:18.275Z,64.97
2018-11-06T21:12:47.027Z,69.93
2018-11-06T21:15:14.820Z,63.27
2018-11-06T21:17:43.612Z,61.60
2018-11-06T21:20:13.142Z,90.70
2018-11-06T21:22:40.431Z,95.57
2018-11-06T21:25:07.918Z,93.47
2018-11-06T21:27:35.883Z,180.70
2018-11-06T21:30:05.000Z,96.57
2018-11-06T21:32:32.149Z,77.03
2018-11-06T21:34:59.550Z,96.73
2018-11-06T21:37:26.935Z,94.57
2018-11-06T21:39:54.696Z,68.57
2018-11-06T21:42:21.785Z,73.70
2018-11-06T21:44:49.527Z,118.43
2018-11-06T21:47:17.142Z,83.93
2018-11-06T21:49:44.288Z,137.33
2018-11-06T21:52:11.357Z,187.07
2018-11-06T21:54:38.698Z,146.03
2018-11-06T21:57:05.860Z,172.40
2018-11-06T21:59:33.211Z,132.03
2018-11-06T22:02:00.274Z,91.07
2018-11-06T22:04:27.352Z,89.77
2018-11-06T22:06:54.522Z,173.90
2018-11-06T22:09:21.707Z,132.10
2018-11-06T22:11:48.963Z,75.40
2018-11-06T22:14:16.089Z,164.50
2018-11-06T22:16:43.182Z,274.73
2018-11-06T22:19:10.498Z,316.23
2018-11-06T22:21:38.023Z,208.20
2018-11-06T22:24:05.668Z,173.33
2018-11-06T22:26:33.146Z,77.53
2018-11-06T22:29:00.613Z,95.53
2018-11-06T22:31:27.715Z,116.57
2018-11-06T22:33:54.819Z,94.10
2018-11-06T22:36:22.151Z,176.77
2018-11-06T22:38:49.214Z,128.23
2018-11-06T22:41:16.317Z,148.30
2018-11-06T22:43:46.623Z,102.27
2018-11-06T22:46:13.851Z,110.90
2018-11-06T22:48:41.004Z,85.63
2018-11-06T22:51:08.145Z,122.40
2018-11-06T22:53:35.402Z,88.80
2018-11-06T22:56:04.099Z,118.27
2018-11-06T22:58:31.173Z,85.17
2018-11-06T23:01:03.992Z,106.60
2018-11-06T23:03:31.297Z,89.60
2018-11-06T23:05:58.587Z,128.37
2018-11-06T23:08:27.431Z,178.83
2018-11-06T23:10:56.778Z,216.53
2018-11-06T23:13:24.052Z,154.17
2018-11-06T23:15:51.233Z,105.97
2018-11-06T23:18:18.699Z,101.17
2018-11-06T23:20:45.796Z,146.70
2018-11-06T23:23:13.059Z,113.63
2018-11-06T23:25:40.144Z,113.07
2018-11-06T23:28:07.225Z,120.03
2018-11-06T23:30:34.923Z,81.07
2018-11-06T23:33:01.975Z,80.33
2018-11-06T23:35:29.159Z,157.23
2018-11-06T23:37:56.324Z,87.67
2018-11-06T23:40:23.411Z,112.73
2018-11-06T23:42:50.615Z,94.60
2018-11-06T23:45:17.756Z,118.70
2018-11-06T23:47:44.824Z,114.17
2018-11-06T23:50:12.398Z,123.20
2018-11-06T23:52:40.316Z,126.40
2018-11-06T23:55:09.138Z,125.17
2018-11-06T23:57:36.222Z,74.73
